This is the latest recevied weather packets stored in our database for station/object VK5KX. If no packets are shown the sender has not sent any weather packets the latest 10 day(s).
| Time | Temp. | Humidity | Pressure | Rain* | Wind** | Luminosity | Snow |
|---|---|---|---|---|---|---|---|
| 1778112955 | 14.44° C | 64% | 1030.6 hPa | 0 mm | - | - | - |
| 1778112049 | 13.89° C | 67% | 1030.6 hPa | 0 mm | - | - | - |
| 1778111148 | 13.33° C | 70% | 1030.7 hPa | 0 mm | - | - | - |
| 1778110257 | 12.78° C | 72% | 1030.6 hPa | 0 mm | - | - | - |
| 1778109343 | 12.22° C | 77% | 1030.4 hPa | 0 mm | - | - | - |
| 1778108443 | 11.11° C | 83% | 1030.2 hPa | 0 mm | - | - | - |
| 1778107542 | 10° C | 86% | 1030.1 hPa | 0 mm | - | - | - |
| 1778106638 | 9.44° C | 86% | 1029.9 hPa | 0 mm | - | - | - |
| 1778105736 | 8.89° C | 86% | 1029.7 hPa | 0 mm | - | - | - |
| 1778104833 | 8.89° C | 84% | 1029.5 hPa | 0 mm | - | - | - |
| 1778103932 | 9.44° C | 83% | 1029.4 hPa | 0 mm | - | - | - |
| 1778103028 | 9.44° C | 82% | 1029.2 hPa | 0 mm | - | - | - |
| 1778102128 | 9.44° C | 80% | 1029 hPa | 0 mm | - | - | - |
| 1778101231 | 10° C | 78% | 1028.8 hPa | 0 mm | - | - | - |
| 1778100320 | 10.56° C | 77% | 1028.6 hPa | 0 mm | - | - | - |
| 1778099416 | 11.11° C | 76% | 1028.5 hPa | 0 mm | - | - | - |
| 1778098514 | 11.11° C | 75% | 1028.4 hPa | 0 mm | - | - | - |
| 1778097630 | 11.11° C | 76% | 1028.3 hPa | 0 mm | - | - | - |
| 1778096710 | 11.11° C | 75% | 1028.1 hPa | 0 mm | - | - | - |
| 1778095809 | 11.67° C | 73% | 1028 hPa | 0 mm | - | - | - |
| 1778094908 | 11.67° C | 72% | 1028 hPa | 0 mm | - | - | - |
| 1778094006 | 12.22° C | 71% | 1027.7 hPa | 0 mm | - | - | - |
| 1778093106 | 12.22° C | 70% | 1027.5 hPa | 0 mm | - | - | - |
| 1778092204 | 12.22° C | 70% | 1027.4 hPa | 0 mm | - | - | - |
| 1778091304 | 12.22° C | 69% | 1027.3 hPa | 0 mm | - | - | - |
* Rain latest hour (hover to see other rain measurements)
** Current wind speed in m/s (hover to see current wind gust speed)